createdAt,value
2023-02-28T00:00:35.492Z,1.80
2023-02-28T00:03:06.811Z,1.80
2023-02-28T00:05:36.962Z,0.93
2023-02-28T00:08:06.338Z,1.48
2023-02-28T00:10:35.889Z,1.67
2023-02-28T00:13:06.852Z,1.55
2023-02-28T00:15:37.259Z,1.17
2023-02-28T00:18:08.266Z,1.58
2023-02-28T00:20:37.716Z,1.27
2023-02-28T00:23:06.736Z,1.95
2023-02-28T00:25:35.908Z,2.22
2023-02-28T00:28:04.911Z,1.83
2023-02-28T00:30:35.516Z,1.50
2023-02-28T00:33:09.057Z,3.17
2023-02-28T00:35:38.984Z,0.93
2023-02-28T00:38:08.298Z,1.80
2023-02-28T00:40:37.791Z,1.40
2023-02-28T00:43:07.002Z,2.90
2023-02-28T00:45:36.128Z,2.33
2023-02-28T00:48:08.768Z,1.52
2023-02-28T00:50:37.912Z,2.47
2023-02-28T00:53:06.891Z,2.28
2023-02-28T00:55:36.445Z,0.60
2023-02-28T00:58:07.179Z,0.77
2023-02-28T01:00:36.313Z,1.08
2023-02-28T01:03:05.508Z,0.95
2023-02-28T01:05:36.053Z,1.20
2023-02-28T01:08:05.464Z,0.88
2023-02-28T01:10:34.695Z,2.20
2023-02-28T01:13:04.583Z,2.80
2023-02-28T01:15:34.426Z,1.17
2023-02-28T01:18:03.698Z,0.77
2023-02-28T01:20:35.498Z,1.85
2023-02-28T01:23:04.614Z,0.93
2023-02-28T01:25:36.674Z,1.15
2023-02-28T01:28:08.054Z,1.65
2023-02-28T01:30:37.382Z,1.13
2023-02-28T01:33:06.319Z,1.08
2023-02-28T01:35:38.658Z,1.50
2023-02-28T01:38:21.187Z,1.05
2023-02-28T01:43:28.564Z,1.15
2023-02-28T01:45:59.634Z,2.83
2023-02-28T01:48:33.922Z,1.17
2023-02-28T01:51:10.738Z,0.80
2023-02-28T01:53:44.905Z,1.00
2023-02-28T01:56:21.684Z,0.80
2023-02-28T01:58:55.082Z,0.50
2023-02-28T02:01:29.261Z,0.47
2023-02-28T02:04:01.777Z,1.25
2023-02-28T02:06:36.744Z,0.33
2023-02-28T02:09:05.958Z,1.33
2023-02-28T02:11:36.505Z,0.75
2023-02-28T02:14:38.536Z,0.52
2023-02-28T02:17:22.072Z,0.85
2023-02-28T02:20:18.021Z,1.30
2023-02-28T02:23:24.376Z,0.63
2023-02-28T02:25:57.476Z,1.05
2023-02-28T02:28:50.169Z,0.77
2023-02-28T02:32:07.340Z,2.15
2023-02-28T02:34:48.214Z,0.80
2023-02-28T02:37:32.503Z,0.60
2023-02-28T02:40:13.959Z,0.47
2023-02-28T02:42:52.133Z,0.25
2023-02-28T02:45:27.368Z,1.90
2023-02-28T02:47:59.385Z,0.93
2023-02-28T02:50:36.538Z,0.55
2023-02-28T02:53:07.791Z,0.90
2023-02-28T02:55:41.556Z,0.80
2023-02-28T02:58:15.732Z,0.88
2023-02-28T03:00:49.348Z,2.17
2023-02-28T03:03:21.916Z,1.50
2023-02-28T03:05:53.338Z,1.17
2023-02-28T03:08:22.302Z,1.20
2023-02-28T03:10:53.311Z,0.47
2023-02-28T03:13:39.746Z,0.85
2023-02-28T03:16:46.413Z,1.95
2023-02-28T03:19:33.770Z,0.20
2023-02-28T03:22:27.110Z,1.67
2023-02-28T03:25:03.566Z,0.77
2023-02-28T03:27:43.865Z,0.75
2023-02-28T03:30:21.809Z,1.23
2023-02-28T03:32:58.421Z,0.75
2023-02-28T03:35:31.101Z,0.20
2023-02-28T03:40:40.642Z,1.33
2023-02-28T03:43:15.794Z,1.52
2023-02-28T03:45:48.174Z,0.93
2023-02-28T03:48:21.288Z,0.95
2023-02-28T03:50:54.440Z,1.58
2023-02-28T03:53:31.737Z,1.80
2023-02-28T03:56:07.710Z,1.77
2023-02-28T03:58:43.792Z,2.03
2023-02-28T04:01:18.783Z,2.17
2023-02-28T04:03:48.537Z,0.95
2023-02-28T04:06:20.678Z,1.40
2023-02-28T04:08:52.446Z,2.20
2023-02-28T04:11:38.907Z,2.25
2023-02-28T04:14:09.604Z,1.55
2023-02-28T04:16:41.300Z,1.52
2023-02-28T04:19:16.419Z,1.35
2023-02-28T04:21:46.886Z,2.50
2023-02-28T04:24:20.593Z,1.52
2023-02-28T04:26:51.538Z,1.17
2023-02-28T04:29:24.018Z,0.70
2023-02-28T04:31:54.460Z,1.35
2023-02-28T04:34:24.879Z,1.05
2023-02-28T04:37:11.475Z,0.65
2023-02-28T04:39:44.889Z,0.90
2023-02-28T04:42:15.966Z,1.20
2023-02-28T04:44:45.161Z,0.73
2023-02-28T04:47:14.248Z,1.42
2023-02-28T04:49:44.670Z,1.77
2023-02-28T04:52:14.559Z,0.60
2023-02-28T04:54:45.039Z,1.38
2023-02-28T04:57:14.219Z,1.08
2023-02-28T04:59:43.261Z,2.28
2023-02-28T05:02:12.269Z,3.30
2023-02-28T05:04:41.339Z,1.17
2023-02-28T05:07:10.957Z,1.58
2023-02-28T05:09:40.707Z,1.83
2023-02-28T05:12:11.952Z,1.38
2023-02-28T05:14:41.849Z,2.67
2023-02-28T05:17:12.082Z,1.05
2023-02-28T05:19:41.135Z,1.00
2023-02-28T05:22:16.494Z,2.78
2023-02-28T05:24:46.711Z,1.98
2023-02-28T05:27:17.734Z,0.75
2023-02-28T05:29:46.872Z,1.95
2023-02-28T05:32:16.117Z,1.95
2023-02-28T05:34:45.208Z,2.45
2023-02-28T05:37:18.037Z,9.10
2023-02-28T05:39:47.040Z,6.03
2023-02-28T05:42:17.635Z,4.47
2023-02-28T05:44:46.618Z,6.40
2023-02-28T05:47:16.807Z,4.60
2023-02-28T05:49:45.796Z,2.47
2023-02-28T05:52:14.870Z,2.50
2023-02-28T05:54:43.949Z,2.67
2023-02-28T05:57:22.888Z,3.70
2023-02-28T05:59:55.829Z,4.30
2023-02-28T06:02:25.060Z,3.45
2023-02-28T06:04:54.068Z,4.63
2023-02-28T06:07:23.713Z,3.30
2023-02-28T06:09:52.823Z,2.22
2023-02-28T06:12:21.838Z,3.30
2023-02-28T06:14:51.108Z,2.60
2023-02-28T06:17:21.880Z,2.78
2023-02-28T06:19:51.149Z,2.80
2023-02-28T06:22:20.136Z,2.15
2023-02-28T06:24:49.443Z,2.67
2023-02-28T06:27:18.451Z,4.25
2023-02-28T06:29:47.622Z,3.50
2023-02-28T06:32:16.834Z,2.55
2023-02-28T06:34:47.607Z,2.17
2023-02-28T06:37:16.933Z,1.98
2023-02-28T06:39:46.261Z,1.48
2023-02-28T06:42:15.414Z,1.98
2023-02-28T06:44:44.589Z,1.80
2023-02-28T06:47:13.789Z,1.20
2023-02-28T06:49:42.801Z,1.60
2023-02-28T06:52:14.422Z,2.15
2023-02-28T06:54:43.532Z,1.50
2023-02-28T06:57:12.561Z,1.60
2023-02-28T06:59:41.741Z,1.25
2023-02-28T07:02:12.090Z,1.58
2023-02-28T07:04:41.751Z,1.42
2023-02-28T07:07:11.416Z,1.23
2023-02-28T07:09:41.868Z,2.65
2023-02-28T07:12:10.996Z,2.10
2023-02-28T07:14:40.179Z,1.10
2023-02-28T07:17:10.232Z,2.40
2023-02-28T07:19:39.390Z,1.50
2023-02-28T07:22:08.907Z,0.82
2023-02-28T07:24:37.992Z,1.67
2023-02-28T07:27:08.472Z,1.55
2023-02-28T07:29:38.546Z,1.30
2023-02-28T07:32:07.825Z,1.65
2023-02-28T07:34:37.094Z,2.47
2023-02-28T07:37:06.787Z,1.25
2023-02-28T07:39:36.365Z,1.85
2023-02-28T07:42:11.609Z,1.73
2023-02-28T07:44:43.919Z,2.85
2023-02-28T07:47:15.482Z,1.88
2023-02-28T07:49:44.593Z,3.22
2023-02-28T07:52:16.511Z,3.95
2023-02-28T07:54:46.332Z,3.03
2023-02-28T07:57:17.114Z,2.25
2023-02-28T07:59:46.292Z,1.67
2023-02-28T08:02:16.806Z,2.45
2023-02-28T08:04:46.197Z,2.60
2023-02-28T08:07:15.791Z,6.28
2023-02-28T08:09:45.597Z,2.38
2023-02-28T08:12:15.058Z,2.75
2023-02-28T08:14:45.458Z,4.88
2023-02-28T08:17:14.822Z,1.77
2023-02-28T08:19:44.107Z,2.78
2023-02-28T08:22:13.264Z,2.45
2023-02-28T08:24:44.214Z,3.53
2023-02-28T08:27:15.602Z,1.73
2023-02-28T08:29:46.716Z,2.00
2023-02-28T08:32:29.061Z,2.13
2023-02-28T08:34:59.155Z,2.50
2023-02-28T08:37:28.395Z,1.65
2023-02-28T08:40:19.470Z,2.40
2023-02-28T08:42:49.456Z,1.02
2023-02-28T08:45:20.060Z,0.82
2023-02-28T08:47:49.125Z,3.47
2023-02-28T08:50:18.611Z,2.45
2023-02-28T08:52:48.311Z,1.52
2023-02-28T08:55:17.382Z,1.33
2023-02-28T08:57:46.576Z,1.80
2023-02-28T09:00:16.241Z,1.08
2023-02-28T09:02:46.666Z,2.28
2023-02-28T09:05:15.686Z,3.17
2023-02-28T09:07:44.773Z,1.67
2023-02-28T09:10:13.909Z,2.15
2023-02-28T09:12:43.016Z,2.60
2023-02-28T09:15:13.173Z,1.50
2023-02-28T09:17:42.826Z,1.27
2023-02-28T09:20:19.150Z,0.30
2023-02-28T09:22:48.280Z,2.28
2023-02-28T09:25:18.218Z,2.13
2023-02-28T09:27:49.568Z,2.60
2023-02-28T09:30:19.702Z,1.48
2023-02-28T09:32:54.929Z,1.95
2023-02-28T09:35:28.014Z,3.05
2023-02-28T09:37:59.462Z,2.60
2023-02-28T09:40:29.075Z,2.45
2023-02-28T09:42:59.825Z,1.65
2023-02-28T09:45:35.046Z,2.88
2023-02-28T09:48:11.034Z,2.25
2023-02-28T09:50:45.168Z,3.38
2023-02-28T09:53:24.751Z,3.88
2023-02-28T09:55:57.680Z,3.97
2023-02-28T09:58:34.469Z,3.22
2023-02-28T10:01:10.001Z,1.63
2023-02-28T10:03:42.743Z,3.28
2023-02-28T10:06:19.433Z,3.20
2023-02-28T10:08:58.790Z,3.05
2023-02-28T10:11:30.446Z,2.08
2023-02-28T10:14:05.636Z,2.70
2023-02-28T10:16:39.300Z,2.90
2023-02-28T10:19:14.503Z,3.38
2023-02-28T10:21:50.418Z,3.55
2023-02-28T10:24:25.865Z,3.47
2023-02-28T10:26:59.524Z,0.88
2023-02-28T10:29:29.384Z,2.08
2023-02-28T10:31:59.326Z,2.78
2023-02-28T10:34:28.328Z,2.80
2023-02-28T10:37:08.740Z,2.70
2023-02-28T10:39:40.379Z,2.45
2023-02-28T10:42:27.410Z,2.67
2023-02-28T10:45:14.571Z,1.13
2023-02-28T10:47:54.984Z,3.63
2023-02-28T10:50:39.188Z,2.33
2023-02-28T10:55:47.069Z,2.45
2023-02-28T10:58:25.835Z,1.05
2023-02-28T11:00:55.258Z,1.55
2023-02-28T11:03:32.807Z,3.55
2023-02-28T11:06:09.188Z,3.75
2023-02-28T11:08:48.293Z,2.60
2023-02-28T11:11:19.106Z,2.70
2023-02-28T11:13:51.202Z,3.05
2023-02-28T11:16:20.541Z,3.70
2023-02-28T11:18:52.526Z,2.00
2023-02-28T11:21:26.363Z,1.30
2023-02-28T11:24:04.766Z,3.47
2023-02-28T11:26:45.655Z,2.45
2023-02-28T11:29:21.811Z,2.35
2023-02-28T11:32:23.754Z,1.92
2023-02-28T11:35:05.848Z,2.47
2023-02-28T11:37:35.691Z,1.85
2023-02-28T11:40:15.136Z,1.55
2023-02-28T11:42:57.742Z,2.15
2023-02-28T11:45:45.339Z,1.23
2023-02-28T11:48:24.653Z,0.43
2023-02-28T11:51:03.327Z,2.58
2023-02-28T11:53:50.663Z,2.53
2023-02-28T11:56:30.773Z,2.58
2023-02-28T11:59:25.931Z,1.25
2023-02-28T12:02:22.631Z,1.50
2023-02-28T12:05:01.998Z,2.47
2023-02-28T12:07:43.013Z,2.67
2023-02-28T12:10:23.863Z,2.75
2023-02-28T12:13:08.776Z,0.98
2023-02-28T12:15:53.732Z,2.72
2023-02-28T12:18:44.965Z,1.67
2023-02-28T12:21:20.786Z,1.95
2023-02-28T12:24:11.862Z,1.85
2023-02-28T12:26:44.122Z,1.85
2023-02-28T12:29:21.855Z,0.93
2023-02-28T12:31:56.060Z,3.22
2023-02-28T12:34:33.456Z,2.90
2023-02-28T12:37:09.537Z,1.25
2023-02-28T12:39:50.225Z,1.65
2023-02-28T12:42:26.631Z,1.67
2023-02-28T12:45:00.833Z,1.63
2023-02-28T12:47:32.712Z,1.77
2023-02-28T12:50:06.177Z,1.67
2023-02-28T12:52:44.050Z,2.05
2023-02-28T12:55:19.859Z,3.15
2023-02-28T12:57:58.752Z,1.42
2023-02-28T13:00:36.159Z,1.75
2023-02-28T13:03:35.076Z,1.10
2023-02-28T13:06:20.498Z,2.00
2023-02-28T13:09:11.098Z,1.83
2023-02-28T13:11:46.058Z,1.98
2023-02-28T13:14:31.688Z,4.57
2023-02-28T13:17:16.771Z,1.83
2023-02-28T13:19:48.904Z,2.13
2023-02-28T13:22:23.478Z,1.87
2023-02-28T13:24:54.717Z,0.57
2023-02-28T13:27:41.914Z,2.55
2023-02-28T13:30:47.691Z,1.77
2023-02-28T13:33:36.152Z,1.60
2023-02-28T13:36:28.344Z,0.80
2023-02-28T13:39:01.449Z,2.05
2023-02-28T13:41:45.932Z,1.65
2023-02-28T13:44:19.127Z,2.22
2023-02-28T13:49:38.937Z,1.00
2023-02-28T13:52:20.480Z,2.13
2023-02-28T13:55:27.886Z,1.67
2023-02-28T13:58:23.360Z,1.50
2023-02-28T14:01:16.709Z,2.80
2023-02-28T14:04:01.140Z,1.77
2023-02-28T14:06:34.175Z,1.52
2023-02-28T14:09:08.917Z,2.25
2023-02-28T14:11:40.580Z,3.63
2023-02-28T14:14:11.837Z,1.63
2023-02-28T14:16:44.205Z,2.53
2023-02-28T14:19:16.974Z,1.70
2023-02-28T14:22:10.489Z,1.00
2023-02-28T14:25:02.514Z,2.00
2023-02-28T14:27:40.114Z,1.97
2023-02-28T14:30:56.565Z,1.20
2023-02-28T14:33:34.420Z,3.78
2023-02-28T14:36:14.820Z,2.33
2023-02-28T14:38:49.486Z,1.75
2023-02-28T14:41:26.933Z,2.03
2023-02-28T14:43:58.481Z,2.90
2023-02-28T14:46:32.997Z,2.70
2023-02-28T14:49:03.008Z,3.33
2023-02-28T14:51:32.079Z,1.88
2023-02-28T14:54:04.768Z,2.00
2023-02-28T14:56:38.010Z,2.05
2023-02-28T14:59:08.466Z,2.00
2023-02-28T15:01:37.626Z,0.95
2023-02-28T15:04:08.977Z,1.63
2023-02-28T15:06:38.185Z,2.90
2023-02-28T15:09:13.992Z,2.95
2023-02-28T15:11:44.041Z,2.00
2023-02-28T15:14:20.550Z,2.22
2023-02-28T15:16:55.588Z,1.50
2023-02-28T15:19:28.483Z,1.98
2023-02-28T15:22:02.105Z,2.70
2023-02-28T15:24:40.586Z,3.25
2023-02-28T15:27:14.661Z,3.13
2023-02-28T15:29:52.045Z,1.92
2023-02-28T15:32:29.854Z,0.85
2023-02-28T15:35:00.811Z,0.28
2023-02-28T15:37:40.760Z,1.27
2023-02-28T15:40:25.479Z,0.95
2023-02-28T15:43:02.901Z,0.30
2023-02-28T15:45:39.555Z,1.05
2023-02-28T15:48:16.195Z,0.77
2023-02-28T15:50:45.799Z,1.13
2023-02-28T15:53:22.760Z,2.30
2023-02-28T15:56:03.352Z,1.20
2023-02-28T15:58:32.653Z,1.20
2023-02-28T16:01:19.992Z,1.55
2023-02-28T16:03:51.595Z,1.85
2023-02-28T16:06:41.836Z,0.60
2023-02-28T16:09:14.690Z,1.33
2023-02-28T16:11:48.700Z,0.60
2023-02-28T16:14:21.957Z,0.20
2023-02-28T16:16:54.242Z,1.55
2023-02-28T16:19:24.112Z,0.73
2023-02-28T16:21:53.940Z,0.75
2023-02-28T16:24:23.106Z,0.60
2023-02-28T16:26:57.157Z,1.05
2023-02-28T16:29:29.192Z,1.48
2023-02-28T16:31:59.100Z,0.90
2023-02-28T16:34:28.276Z,1.02
2023-02-28T16:36:57.630Z,0.98
2023-02-28T16:39:27.175Z,0.90
2023-02-28T16:41:57.863Z,0.90
2023-02-28T16:44:31.681Z,0.50
2023-02-28T16:47:02.600Z,0.70
2023-02-28T16:49:32.607Z,0.82
2023-02-28T16:52:01.551Z,0.75
2023-02-28T16:54:31.708Z,1.92
2023-02-28T16:57:02.805Z,0.77
2023-02-28T16:59:33.273Z,0.98
2023-02-28T17:02:02.690Z,1.55
2023-02-28T17:04:31.938Z,0.45
2023-02-28T17:07:01.270Z,0.50
2023-02-28T17:09:41.426Z,1.42
2023-02-28T17:12:13.689Z,1.58
2023-02-28T17:14:42.870Z,1.08
2023-02-28T17:17:19.942Z,1.80
2023-02-28T17:19:53.745Z,0.90
2023-02-28T17:22:22.976Z,0.68
2023-02-28T17:24:52.281Z,1.50
2023-02-28T17:27:22.983Z,1.52
2023-02-28T17:29:52.057Z,0.57
2023-02-28T17:32:21.349Z,1.05
2023-02-28T17:34:50.477Z,0.73
2023-02-28T17:37:19.633Z,0.90
2023-02-28T17:39:49.267Z,1.23
2023-02-28T17:42:22.152Z,1.65
2023-02-28T17:44:51.332Z,1.08
2023-02-28T17:47:20.955Z,1.88
2023-02-28T17:49:51.458Z,1.15
2023-02-28T17:52:23.291Z,0.93
2023-02-28T17:54:52.517Z,1.48
2023-02-28T17:57:23.713Z,0.70
2023-02-28T17:59:53.375Z,0.68
2023-02-28T18:02:22.567Z,0.85
2023-02-28T18:04:51.906Z,0.43
2023-02-28T18:07:24.613Z,0.88
2023-02-28T18:09:54.661Z,0.50
2023-02-28T18:12:25.156Z,1.65
2023-02-28T18:14:54.534Z,0.47
2023-02-28T18:17:23.762Z,0.73
2023-02-28T18:19:52.825Z,0.38
2023-02-28T18:22:22.898Z,1.75
2023-02-28T18:24:51.953Z,0.35
2023-02-28T18:27:25.486Z,0.85
2023-02-28T18:29:56.421Z,0.85
2023-02-28T18:32:27.944Z,0.75
2023-02-28T18:34:57.685Z,0.98
2023-02-28T18:37:27.549Z,0.85
2023-02-28T18:39:57.200Z,0.38
2023-02-28T18:42:26.145Z,0.30
2023-02-28T18:44:56.677Z,0.47
2023-02-28T18:47:26.757Z,0.77
2023-02-28T18:49:55.977Z,0.68
2023-02-28T18:52:25.090Z,0.22
2023-02-28T18:54:54.125Z,0.73
2023-02-28T18:57:23.901Z,0.80
2023-02-28T18:59:53.154Z,0.55
2023-02-28T19:02:23.681Z,1.15
2023-02-28T19:04:53.451Z,0.43
2023-02-28T19:07:22.568Z,0.98
2023-02-28T19:09:52.910Z,1.02
2023-02-28T19:12:22.334Z,0.50
2023-02-28T19:14:51.996Z,0.50
2023-02-28T19:17:22.555Z,0.95
2023-02-28T19:19:52.345Z,0.43
2023-02-28T19:22:21.415Z,0.10
2023-02-28T19:24:51.778Z,0.43
2023-02-28T19:27:21.653Z,0.63
2023-02-28T19:29:53.385Z,0.45
2023-02-28T19:32:24.112Z,0.82
2023-02-28T19:34:54.189Z,1.20
2023-02-28T19:37:24.016Z,1.00
2023-02-28T19:39:57.189Z,0.70
2023-02-28T19:44:57.809Z,1.00
2023-02-28T19:47:28.263Z,0.43
2023-02-28T19:49:57.401Z,0.77
2023-02-28T19:52:27.234Z,0.30
2023-02-28T19:54:56.303Z,0.40
2023-02-28T19:57:25.623Z,1.92
2023-02-28T19:59:54.721Z,0.47
2023-02-28T20:02:24.591Z,0.55
2023-02-28T20:04:59.940Z,1.08
2023-02-28T20:07:33.098Z,0.43
2023-02-28T20:10:02.246Z,0.52
2023-02-28T20:12:32.922Z,0.40
2023-02-28T20:15:03.924Z,0.80
2023-02-28T20:17:34.417Z,0.25
2023-02-28T20:20:05.527Z,0.50
2023-02-28T20:22:36.671Z,0.20
2023-02-28T20:25:08.330Z,0.57
2023-02-28T20:27:37.472Z,1.30
2023-02-28T20:30:08.913Z,1.67
2023-02-28T20:32:39.910Z,0.20
2023-02-28T20:35:12.527Z,0.88
2023-02-28T20:37:41.670Z,1.25
2023-02-28T20:40:12.032Z,0.20
2023-02-28T20:42:41.372Z,0.20
2023-02-28T20:45:11.801Z,0.22
2023-02-28T20:47:42.554Z,0.75
2023-02-28T20:50:18.049Z,0.95
2023-02-28T20:52:47.355Z,0.93
2023-02-28T20:55:16.508Z,0.57
2023-02-28T20:57:45.756Z,0.60
2023-02-28T21:00:20.217Z,0.30
2023-02-28T21:02:49.362Z,1.70
2023-02-28T21:05:19.888Z,0.55
2023-02-28T21:07:49.436Z,0.22
2023-02-28T21:10:19.694Z,1.05
2023-02-28T21:12:54.772Z,0.98
2023-02-28T21:15:24.041Z,0.52
2023-02-28T21:17:53.132Z,0.65
2023-02-28T21:20:23.625Z,0.15
2023-02-28T21:22:53.798Z,0.50
2023-02-28T21:25:23.425Z,0.65
2023-02-28T21:27:55.818Z,0.17
2023-02-28T21:30:25.156Z,0.68
2023-02-28T21:32:54.229Z,0.50
2023-02-28T21:35:25.305Z,1.23
2023-02-28T21:37:54.253Z,0.50
2023-02-28T21:40:23.421Z,0.63
2023-02-28T21:42:52.528Z,0.30
2023-02-28T21:45:22.219Z,1.52
2023-02-28T21:47:51.187Z,0.35
2023-02-28T21:50:20.288Z,0.20
2023-02-28T21:52:51.068Z,0.40
2023-02-28T21:55:20.145Z,1.20
2023-02-28T21:57:49.448Z,0.60
2023-02-28T22:00:19.302Z,1.05
2023-02-28T22:02:48.458Z,0.82
2023-02-28T22:05:17.551Z,0.40
2023-02-28T22:07:46.743Z,0.50
2023-02-28T22:10:18.313Z,1.15
2023-02-28T22:12:47.504Z,0.25
2023-02-28T22:15:18.206Z,0.30
2023-02-28T22:17:47.707Z,0.40
2023-02-28T22:20:17.751Z,0.93
2023-02-28T22:22:46.831Z,0.38
2023-02-28T22:25:18.523Z,0.50
2023-02-28T22:27:47.709Z,0.32
2023-02-28T22:30:17.461Z,1.77
2023-02-28T22:32:46.506Z,1.10
2023-02-28T22:35:15.620Z,0.75
2023-02-28T22:37:44.907Z,0.60
2023-02-28T22:40:14.896Z,0.40
2023-02-28T22:42:45.464Z,0.77
2023-02-28T22:45:14.493Z,0.35
2023-02-28T22:47:43.551Z,0.80
2023-02-28T22:50:13.785Z,1.42
2023-02-28T22:52:43.279Z,0.57
2023-02-28T22:55:12.653Z,0.30
2023-02-28T22:57:42.622Z,0.20
2023-02-28T23:00:16.087Z,0.32
2023-02-28T23:02:45.916Z,0.75
2023-02-28T23:05:16.016Z,0.13
2023-02-28T23:07:45.040Z,0.10
2023-02-28T23:10:19.356Z,0.35
2023-02-28T23:12:51.759Z,0.30
2023-02-28T23:15:24.411Z,0.30
2023-02-28T23:17:53.736Z,0.45
2023-02-28T23:20:23.217Z,0.30
2023-02-28T23:22:52.406Z,0.38
2023-02-28T23:25:22.570Z,0.10
2023-02-28T23:27:51.921Z,0.35
2023-02-28T23:30:22.697Z,0.75
2023-02-28T23:32:52.340Z,1.02
2023-02-28T23:35:21.347Z,0.10
2023-02-28T23:37:50.622Z,0.10
2023-02-28T23:40:19.754Z,0.30
2023-02-28T23:42:49.382Z,0.10
2023-02-28T23:45:18.760Z,0.55
2023-02-28T23:48:08.094Z,0.82
2023-02-28T23:50:39.961Z,0.65
2023-02-28T23:55:40.305Z,0.20
2023-02-28T23:58:09.724Z,0.35
